Flight Track Log - Related Links

Times and Time Zones

All times are in EDT time to prevent confusion due to time zone crossing. See the DAL511 flight status page for this flight to view local times or setup timezone preferences in your user account.

Time Position Orientation Groundspeed Altitude Reporting Facility
EDT Latitude Longitude Course Direction KTS MPH feet Rate Location/Type
Tue 10:15:00 AM 19.5423 -99.0165 26° Northeast  Level FlightAware Approximate
Tue 10:16:00 AM 19.6483 -98.9608 26° Northeast  Level FlightAware Approximate
Tue 10:17:00 AM 19.7542 -98.9050 26° Northeast  Level FlightAware Approximate
Tue 10:18:00 AM 19.8601 -98.8492 26° Northeast  Level FlightAware Approximate
Tue 10:19:00 AM 19.9660 -98.7933 26° Northeast  Level FlightAware Approximate
Tue 10:20:00 AM 20.0720 -98.7373 26° Northeast  Level FlightAware Approximate
Tue 10:21:00 AM 20.1778 -98.6812 26° Northeast  Level FlightAware Approximate
Tue 10:22:00 AM 20.2837 -98.6251 26° Northeast  Level FlightAware Approximate
Tue 10:23:00 AM 20.3895 -98.5688 26° Northeast  Level FlightAware Approximate
Tue 10:24:00 AM 20.4953 -98.5126 26° Northeast  Level FlightAware Approximate
Tue 10:25:00 AM 20.6012 -98.4562 27° Northeast  Level FlightAware Approximate
Tue 10:26:00 AM 20.7069 -98.3997 27° Northeast  Level FlightAware Approximate
Tue 10:27:00 AM 20.8127 -98.3432 27° Northeast  Level FlightAware Approximate
Tue 10:28:00 AM 20.9052 -98.2951 26° Northeast  Level FlightAware Approximate
Tue 10:29:00 AM 21.0115 -98.2396 26° Northeast  Level FlightAware Approximate
Tue 10:30:00 AM 21.1178 -98.1840 26° Northeast  Level FlightAware Approximate
Tue 10:31:00 AM 21.2240 -98.1283 26° Northeast  Level FlightAware Approximate
Tue 10:32:00 AM 21.3302 -98.0725 26° Northeast  Level FlightAware Approximate
Tue 10:33:00 AM 21.4364 -98.0167 26° Northeast  Level FlightAware Approximate
Tue 10:34:00 AM 21.5426 -97.9608 26° Northeast  Level FlightAware Approximate
Tue 10:35:00 AM 21.6488 -97.9048 26° Northeast  Level FlightAware Approximate
Tue 10:36:00 AM 21.7549 -97.8487 26° Northeast  Level FlightAware Approximate
Tue 10:37:00 AM 21.8610 -97.7925 26° Northeast  Level FlightAware Approximate
Tue 10:38:00 AM 21.9671 -97.7363 26° Northeast  Level FlightAware Approximate
Tue 10:39:00 AM 22.0732 -97.6800 26° Northeast  Level FlightAware Approximate
Tue 10:40:00 AM 22.1793 -97.6235 26° Northeast  Level FlightAware Approximate
Tue 10:41:00 AM 22.2853 -97.5670 26° Northeast  Level FlightAware Approximate
Tue 10:42:00 AM 22.3914 -97.5105 26° Northeast  Level FlightAware Approximate
Tue 10:43:00 AM 22.4974 -97.4538 26° Northeast  Level FlightAware Approximate
Tue 10:44:00 AM 22.6032 -97.3968 27° Northeast  Level FlightAware Approximate
Tue 10:45:00 AM 22.7089 -97.3393 27° Northeast  Level FlightAware Approximate
Tue 10:46:00 AM 22.8146 -97.2818 27° Northeast  Level FlightAware Approximate
Tue 10:47:00 AM 22.9202 -97.2241 27° Northeast  Level FlightAware Approximate
Tue 10:48:00 AM 23.0258 -97.1664 27° Northeast  Level FlightAware Approximate
Tue 10:49:00 AM 23.1315 -97.1086 27° Northeast  Level FlightAware Approximate
Tue 10:50:00 AM 23.2373 -97.0512 27° Northeast  Level FlightAware Approximate
Tue 10:51:00 AM 23.3430 -96.9936 27° Northeast  Level FlightAware Approximate
Tue 10:52:00 AM 23.4488 -96.9360 27° Northeast  Level FlightAware Approximate
Tue 10:53:00 AM 23.5545 -96.8783 27° Northeast  Level FlightAware Approximate
Tue 10:54:00 AM 23.6602 -96.8204 27° Northeast  Level FlightAware Approximate
Tue 10:55:00 AM 23.7659 -96.7625 27° Northeast  Level FlightAware Approximate
Tue 10:56:00 AM 23.8716 -96.7045 27° Northeast  Level FlightAware Approximate
Tue 10:57:00 AM 23.9772 -96.6464 27° Northeast  Level FlightAware Approximate
Tue 10:58:00 AM 24.0828 -96.5882 27° Northeast  Level FlightAware Approximate
Tue 10:59:00 AM 24.1884 -96.5299 27° Northeast  Level FlightAware Approximate
Tue 11:00:00 AM 24.2940 -96.4715 27° Northeast  Level FlightAware Approximate
Tue 11:01:00 AM 24.3995 -96.4130 27° Northeast  Level FlightAware Approximate
Tue 11:02:00 AM 24.5051 -96.3544 27° Northeast  Level FlightAware Approximate
Tue 11:03:00 AM 24.6106 -96.2957 27° Northeast  Level FlightAware Approximate
Tue 11:04:00 AM 24.7161 -96.2369 27° Northeast  Level FlightAware Approximate
Tue 11:05:00 AM 24.8215 -96.1780 27° Northeast  Level FlightAware Approximate
Tue 11:06:00 AM 24.9270 -96.1190 27° Northeast  Level FlightAware Approximate
Tue 11:07:00 AM 25.0324 -96.0600 27° Northeast  Level FlightAware Approximate
Tue 11:08:00 AM 25.1378 -96.0008 27° Northeast  Level FlightAware Approximate
Tue 11:09:00 AM 25.2432 -95.9415 27° Northeast  Level FlightAware Approximate
Tue 11:10:00 AM 25.3485 -95.8821 27° Northeast  Level FlightAware Approximate
Tue 11:11:00 AM 25.4538 -95.8226 27° Northeast  Level FlightAware Approximate
Tue 11:12:00 AM 25.5591 -95.7630 27° Northeast  Level FlightAware Approximate
Tue 11:13:00 AM 25.6644 -95.7032 27° Northeast  Level FlightAware Approximate
Tue 11:14:00 AM 25.7696 -95.6434 27° Northeast  Level FlightAware Approximate
Tue 11:15:00 AM 25.8720 -95.5792 26° Northeast  Level FlightAware Approximate
Tue 11:15:58 AM 25.7769 -97.0492 27° Northeast 456 525 33,000  Level Houston Center
Tue 11:16:00 AM 25.9785 -95.5219 26° Northeast  Level FlightAware Approximate
Tue 11:17:00 AM 26.0845 -95.4638 27° Northeast  Level FlightAware Approximate
Tue 11:17:00 AM 25.9111 -97.0186 12° North 456 525 33,500  Level Houston Center
Tue 11:18:00 AM 26.1899 -95.4040 27° Northeast  Level FlightAware Approximate
Tue 11:18:02 AM 26.0256 -96.9633 23° Northeast 452 520 34,600  Level Houston Center
Tue 11:19:00 AM 26.2952 -95.3441 27° Northeast  Level FlightAware Approximate
Tue 11:19:04 AM 26.1456 -96.8986 26° Northeast 447 514 35,000  Level Houston Center
Tue 11:20:00 AM 26.4006 -95.2842 27° Northeast  Level FlightAware Approximate
Tue 11:20:06 AM 26.2572 -96.8392 26° Northeast 444 511 35,000  Level Houston Center
Tue 11:21:00 AM 26.5058 -95.2241 27° Northeast  Level FlightAware Approximate
Tue 11:21:08 AM 26.3775 -96.7733 26° Northeast 447 514 35,000  Level Houston Center
Tue 11:22:10 AM 26.4825 -96.7164 26° Northeast 444 511 35,000 -48 Level Houston Center
Tue 11:23:12 AM 26.5933 -96.6553 26° Northeast 443 510 34,900  Descending Houston Center
Tue 11:24:14 AM 26.7058 -96.5933 26° Northeast 448 516 35,000 48 Climbing Houston Center
Tue 11:25:16 AM 26.8181 -96.5325 26° Northeast 449 517 35,000 -48 Level Houston Center
Tue 11:26:18 AM 26.9342 -96.4683 26° Northeast 448 516 34,900  Descending Houston Center
Tue 11:27:20 AM 27.0675 -96.3956 26° Northeast 446 513 35,000 48 Climbing Houston Center
Tue 11:28:22 AM 27.1786 -96.3342 26° Northeast 444 511 35,000  Level Houston Center
Tue 11:29:24 AM 27.2903 -96.2731 26° Northeast 447 514 35,000  Level Houston Center
Tue 11:30:27 AM 27.4017 -96.2114 26° Northeast 446 513 35,000  Level Houston Center
Tue 11:31:29 AM 27.5122 -96.1494 26° Northeast 445 512 35,000 -48 Level Houston Center
Tue 11:32:31 AM 27.6225 -96.0875 26° Northeast 444 511 34,900 -48 Descending Houston Center
Tue 11:33:33 AM 27.7581 -96.0125 26° Northeast 452 520 34,900 48 Level Houston Center
Tue 11:34:35 AM 27.8719 -95.9486 26° Northeast 457 526 35,000  Climbing Houston Center
Tue 11:35:37 AM 27.9850 -95.8856 26° Northeast 455 524 34,900  Descending Houston Center
Tue 11:36:39 AM 28.0994 -95.8208 27° Northeast 459 528 35,000  Climbing Houston Center
Tue 11:37:41 AM 28.2133 -95.7569 26° Northeast 458 527 34,900  Descending Houston Center
Tue 11:38:43 AM 28.3456 -95.6817 27° Northeast 453 521 35,000 48 Climbing Houston Center
Tue 11:39:45 AM 28.4603 -95.6161 27° Northeast 459 528 35,000  Level Houston Center
Tue 11:40:47 AM 28.5744 -95.5522 26° Northeast 459 528 35,000  Level Houston Center
Tue 11:41:49 AM 28.6881 -95.4875 27° Northeast 457 526 35,000  Level Houston Center
Tue 11:42:52 AM 28.8006 -95.4222 27° Northeast 455 524 35,000  Level Houston Center
Tue 11:43:54 AM 28.9156 -95.3578 26° Northeast 459 528 35,000  Level Houston Center
Tue 11:44:56 AM 29.0511 -95.2794 27° Northeast 458 527 35,000  Level Houston Center
Tue 11:45:58 AM 29.1653 -95.2128 27° Northeast 460 529 35,000  Level Houston Center
Tue 11:47:00 AM 29.2775 -95.1481 27° Northeast 456 525 35,000  Level Houston Center
Tue 11:48:02 AM 29.3897 -95.0819 27° Northeast 457 526 35,000  Level Houston Center
Tue 11:49:04 AM 29.5247 -95.0028 27° Northeast 462 532 35,000  Level Houston Center
Tue 11:50:06 AM 29.6378 -94.9394 26° Northeast 463 533 35,000  Level Houston Center
Tue 11:51:08 AM 29.7500 -94.8756 26° Northeast 468 539 35,000  Level Houston Center
Tue 11:52:11 AM 29.8608 -94.8106 27° Northeast 460 529 35,000  Level Houston Center
Tue 11:53:13 AM 29.9750 -94.7436 27° Northeast 464 534 35,000  Level Houston Center
Tue 11:54:15 AM 30.1111 -94.6633 27° Northeast 463 533 35,000  Level Houston Center
Tue 11:55:17 AM 30.2175 -94.5833 33° Northeast 461 531 35,000  Level Houston Center
Tue 11:56:19 AM 30.3231 -94.5003 34° Northeast 462 532 35,000  Level Houston Center
Tue 11:57:21 AM 30.4406 -94.4064 35° Northeast 457 526 35,000 -48 Level Houston Center
Tue 11:58:23 AM 30.5442 -94.3233 35° Northeast 453 521 34,900 -48 Descending Houston Center
Tue 11:59:26 AM 30.6497 -94.2403 34° Northeast 455 524 34,900 48 Level Houston Center
Tue 12:00:28 PM 30.7525 -94.1581 35° Northeast 444 511 35,000  Climbing Houston Center
Tue 12:01:30 PM 30.8581 -94.0739 34° Northeast 454 522 34,900 -48 Descending Houston Center
Tue 12:02:32 PM 30.9644 -93.9883 35° Northeast 460 529 34,900 48 Level Houston Center
Tue 12:03:34 PM 31.0764 -93.8967 35° Northeast 462 532 35,000 48 Climbing Houston Center
Tue 12:04:36 PM 31.1964 -93.8011 34° Northeast 457 526 35,000  Level Houston Center
Tue 12:05:38 PM 31.3078 -93.7097 35° Northeast 463 533 35,000  Level Houston Center
Tue 12:06:40 PM 31.4128 -93.6242 35° Northeast 461 531 35,000  Level Houston Center
Tue 12:07:42 PM 31.5100 -93.5447 35° Northeast 461 531 35,000  Level Houston Center
Tue 12:08:45 PM 31.6161 -93.4592 34° Northeast 459 528 35,000  Level Houston Center
Tue 12:09:47 PM 31.7406 -93.3550 35° Northeast 456 525 35,000  Level Houston Center
Tue 12:10:49 PM 31.8469 -93.2686 35° Northeast 459 528 35,000  Level Houston Center
Tue 12:11:51 PM 31.9514 -93.1803 36° Northeast 460 529 35,000  Level Houston Center
Tue 12:12:53 PM 32.0569 -93.0936 35° Northeast 461 531 35,000  Level Houston Center
Tue 12:13:55 PM 32.1622 -93.0061 35° Northeast 461 531 35,000  Level Houston Center
Tue 12:14:53 PM 32.2689 -92.9200 34° Northeast 460 529 35,000  Level Fort Worth Center
Tue 12:15:53 PM 32.3722 -92.8361 34° Northeast 460 529 35,000  Level Fort Worth Center
Tue 12:16:53 PM 32.4772 -92.7372 38° Northeast 465 535 35,000  Level Fort Worth Center
Tue 12:17:53 PM 32.5844 -92.6478 35° Northeast 471 542 35,000  Level Fort Worth Center
Tue 12:18:53 PM 32.6878 -92.5633 35° Northeast 464 534 35,000  Level Fort Worth Center
Tue 12:19:53 PM 32.7947 -92.4736 35° Northeast 464 534 35,000  Level Fort Worth Center
Tue 12:20:53 PM 32.8978 -92.3861 35° Northeast 464 534 35,000  Level Fort Worth Center
Tue 12:22:38 PM 33.0797 -92.2317 35° Northeast 474 545 35,000  Level Memphis Center
Tue 12:23:38 PM 33.1853 -92.1394 36° Northeast 474 545 35,000  Level Memphis Center
Tue 12:24:38 PM 33.2908 -92.0522 35° Northeast 469 540 35,000  Level Memphis Center
Tue 12:25:38 PM 33.3986 -91.9622 35° Northeast 462 532 35,000  Level Memphis Center
Tue 12:26:38 PM 33.5000 -91.8719 37° Northeast 462 532 35,000  Level Memphis Center
Tue 12:27:38 PM 33.6075 -91.7839 34° Northeast 457 526 35,000  Level Memphis Center
Tue 12:28:38 PM 33.7003 -91.6956 38° Northeast 449 517 35,000  Level Memphis Center
Tue 12:29:38 PM 33.8056 -91.6047 36° Northeast 449 517 35,000  Level Memphis Center
Tue 12:30:38 PM 33.9067 -91.5136 37° Northeast 455 524 35,000  Level Memphis Center
Tue 12:31:38 PM 34.0117 -91.4247 35° Northeast 455 524 35,000  Level Memphis Center
Tue 12:32:38 PM 34.1147 -91.3356 36° Northeast 460 529 35,000  Level Memphis Center
Tue 12:33:38 PM 34.2197 -91.2414 37° Northeast 460 529 35,000  Level Memphis Center
Tue 12:34:38 PM 34.3225 -91.1494 36° Northeast 460 529 35,000  Level Memphis Center
Tue 12:35:38 PM 34.4358 -91.0472 37° Northeast 460 529 35,000  Level Memphis Center
Tue 12:36:38 PM 34.5428 -90.9572 35° Northeast 460 529 35,000  Level Memphis Center
Tue 12:37:38 PM 34.6494 -90.8619 36° Northeast 460 529 35,000  Level Memphis Center
Tue 12:38:38 PM 34.7564 -90.7692 35° Northeast 460 529 35,000  Level Memphis Center
Tue 12:39:38 PM 34.8608 -90.6733 37° Northeast 460 529 35,000  Level Memphis Center
Tue 12:40:38 PM 34.9675 -90.5775 36° Northeast 465 535 35,000  Level Memphis Center
Tue 12:41:38 PM 35.0719 -90.4839 36° Northeast 470 541 35,000  Level Memphis Center
Tue 12:42:38 PM 35.1658 -90.4003 36° Northeast 465 535 35,000  Level Memphis Center
Tue 12:43:38 PM 35.2703 -90.3061 36° Northeast 465 535 35,000  Level Memphis Center
Tue 12:44:38 PM 35.3744 -90.2067 38° Northeast 465 535 35,000  Level Memphis Center
Tue 12:45:38 PM 35.4786 -90.1122 36° Northeast 459 528 35,000  Level Memphis Center
Tue 12:46:38 PM 35.5908 -90.0097 37° Northeast 459 528 35,000  Level Memphis Center
Tue 12:47:38 PM 35.6950 -89.9097 38° Northeast 459 528 35,000  Level Memphis Center
Tue 12:48:38 PM 35.7800 -89.8272 38° Northeast 441 507 35,000  Level Memphis Center
Tue 12:49:38 PM 35.8817 -89.7319 37° Northeast 451 519 35,000  Level Memphis Center
Tue 12:50:38 PM 35.9856 -89.6361 37° Northeast 458 527 35,000  Level Memphis Center
Tue 12:51:38 PM 36.0869 -89.5403 37° Northeast 458 527 35,000  Level Memphis Center
Tue 12:52:38 PM 36.1906 -89.4439 37° Northeast 458 527 35,000  Level Memphis Center
Tue 12:53:38 PM 36.3044 -89.3344 38° Northeast 458 527 35,000  Level Memphis Center
Tue 12:54:38 PM 36.4183 -89.2353 35° Northeast 476 548 35,000  Level Memphis Center
Tue 12:55:38 PM 36.5214 -89.1306 39° Northeast 476 548 35,000  Level Memphis Center
Tue 12:56:38 PM 36.6247 -89.0358 36° Northeast 471 542 35,000  Level Memphis Center
Tue 12:57:38 PM 36.7278 -88.9356 38° Northeast 471 542 35,000  Level Memphis Center
Tue 12:58:38 PM 36.8289 -88.8406 37° Northeast 460 529 35,000  Level Memphis Center
Tue 12:59:38 PM 36.9317 -88.7400 38° Northeast 460 529 35,000  Level Memphis Center
Tue 01:00:38 PM 37.0347 -88.6444 36° Northeast 460 529 35,000  Level Memphis Center
Tue 01:01:38 PM 37.1333 -88.5461 38° Northeast 455 524 35,000  Level Memphis Center
Tue 01:02:38 PM 37.2358 -88.4472 38° Northeast 455 524 35,000  Level Memphis Center
Tue 01:04:31 PM 37.4175 -88.2675 38° Northeast 455 524 35,000  Level Indianapolis Center
Tue 01:05:32 PM 37.5200 -88.1664 38° Northeast 460 529 35,000  Level Indianapolis Center
Tue 01:06:34 PM 37.6208 -88.0669 38° Northeast 457 526 35,000  Level Indianapolis Center
Tue 01:07:36 PM 37.7225 -87.9667 38° Northeast 459 528 35,000  Level Indianapolis Center
Tue 01:08:38 PM 37.8322 -87.8567 38° Northeast 457 526 35,000  Level Indianapolis Center
Tue 01:09:40 PM 37.9342 -87.7594 37° Northeast 458 527 35,000  Level Indianapolis Center
Tue 01:10:42 PM 38.0439 -87.6800 30° Northeast 452 520 35,000  Level Indianapolis Center
Tue 01:11:44 PM 38.1550 -87.5992 30° Northeast 455 524 35,000  Level Indianapolis Center
Tue 01:12:45 PM 38.2667 -87.5203 29° Northeast 454 522 35,000  Level Indianapolis Center
Tue 01:13:47 PM 38.3786 -87.4392 30° Northeast 454 522 35,000  Level Indianapolis Center
Tue 01:14:49 PM 38.4917 -87.3553 30° Northeast 461 531 35,000  Level Indianapolis Center
Tue 01:15:51 PM 38.6044 -87.2725 30° Northeast 461 531 35,000  Level Indianapolis Center
Tue 01:16:53 PM 38.7172 -87.1892 30° Northeast 462 532 35,000  Level Indianapolis Center
Tue 01:17:54 PM 38.8289 -87.1061 30° Northeast 462 532 35,000  Level Indianapolis Center
Tue 01:18:56 PM 38.9689 -87.0564 15° North 431 496 35,000  Level Indianapolis Center
Tue 01:19:58 PM 39.0889 -87.0314 North 432 497 35,000 -145 Level Indianapolis Center
Tue 01:21:00 PM 39.2125 -87.0053 North 433 498 34,700 -581 Descending Indianapolis Center
Tue 01:22:02 PM 39.3311 -86.9797 North 433 498 33,800 -823 Descending Indianapolis Center
Tue 01:23:04 PM 39.4517 -86.9536 North 437 503 33,000 -387 Descending Indianapolis Center
Tue 01:24:06 PM 39.5728 -86.9258 10° North 440 506 33,000  Level Indianapolis Center
Tue 01:25:08 PM 39.6758 -86.8411 32° Northeast 447 514 33,000  Level Indianapolis Center
Tue 01:26:09 PM 39.7158 -86.6911 71° East 448 516 33,000  Level Indianapolis Center
Tue 01:27:11 PM 39.7308 -86.4953 84° East 455 524 33,000  Level Indianapolis Center
Tue 01:28:13 PM 39.7739 -86.3450 70° East 454 522 33,000  Level Indianapolis Center
Tue 01:29:15 PM 39.8769 -86.2400 38° Northeast 445 512 33,000 -1,065 Level Indianapolis Center
Tue 01:30:17 PM 39.9781 -86.1453 36° Northeast 445 512 30,800 -1,452 Descending Indianapolis Center
Tue 01:31:19 PM 40.0822 -86.0469 36° Northeast 460 529 30,000 -440 Descending Indianapolis Center
Tue 01:32:06 PM 40.1667 -85.9656 36° Northeast 468 539 30,000  Level Chicago Center
Tue 01:33:08 PM 40.2711 -85.8669 36° Northeast 467 537 30,000  Level Chicago Center
Tue 01:34:09 PM 40.3764 -85.7686 35° Northeast 464 534 30,000 -585 Level Chicago Center
Tue 01:35:11 PM 40.4825 -85.6683 36° Northeast 472 543 28,800 -1,452 Descending Chicago Center
Tue 01:36:13 PM 40.5900 -85.5647 36° Northeast 479 551 27,000 -1,935 Descending Chicago Center
Tue 01:37:15 PM 40.7019 -85.4561 36° Northeast 478 550 24,800 -1,742 Descending Chicago Center
Tue 01:38:17 PM 40.8058 -85.3556 36° Northeast 468 539 23,400 -1,839 Descending Chicago Center
Tue 01:39:19 PM 40.9147 -85.2231 43° Northeast 447 514 21,000 -1,161 Descending Chicago Center
Tue 01:40:21 PM 40.9761 -85.0797 60° Northeast 448 516 21,000  Level Chicago Center
Tue 01:41:23 PM 41.0286 -84.9317 65° Northeast 448 516 21,000  Level Chicago Center
Tue 01:42:24 PM 41.0822 -84.7842 64° Northeast 449 517 21,000 -146 Level Chicago Center
Tue 01:43:26 PM 41.1764 -84.6828 39° Northeast 441 507 20,700 -677 Descending Chicago Center
Tue 01:44:28 PM 41.2914 -84.5683 37° Northeast 433 498 19,600 -1,065 Descending Chicago Center
Tue 01:45:30 PM 41.3853 -84.4767 36° Northeast 424 488 18,500 -919 Descending Chicago Center
Tue 01:46:32 PM 41.4747 -84.3889 36° Northeast 405 466 17,700 -871 Descending Chicago Center
Tue 01:47:34 PM 41.5600 -84.3042 37° Northeast 388 447 16,700 -1,293 Descending Chicago Center
Tue 01:48:28 PM 41.6436 -84.2206 37° Northeast 381 438 15,200 -1,835 Descending Cleveland Center
Tue 01:48:59 PM 41.6908 -84.1789 33° Northeast 374 430 14,100 -2,118 Descending Cleveland Center
Tue 01:49:53 PM 41.7642 -84.1022 38° Northeast 364 419 12,200 -1,086 Descending Cleveland Center
Tue 01:50:55 PM 41.8458 -84.0203 37° Northeast 365 420 12,000 -98 Descending Cleveland Center
Tue 01:51:56 PM 41.9156 -83.9233 46° Northeast 365 420 12,000 -50 Level Cleveland Center
Tue 01:52:56 PM 41.9872 -83.8239 46° Northeast 366 421 11,900 -50 Descending Cleveland Center
Tue 01:53:57 PM 42.0567 -83.7267 46° Northeast 364 419 11,900 49 Level Cleveland Center
Tue 01:54:58 PM 42.1258 -83.6264 47° Northeast 339 390 12,000  Climbing Cleveland Center
Tue 01:55:59 PM 42.1822 -83.5478 46° Northeast 261 300 11,900 -466 Descending Cleveland Center
Tue 01:56:54 PM 42.2397 -83.5058 28° Northeast 258 297 11,100 -1,426 Descending Cleveland Center
Tue 01:58:01 PM 42.3097 -83.4500 31° Northeast 259 298 9,000 -1,875 Descending Cleveland Center
Tue 01:59:02 PM 42.3714 -83.4050 28° Northeast 245 282 7,100 -1,820 Descending Cleveland Center
Tue 02:00:03 PM 42.4308 -83.3625 28° Northeast 240 276 5,300 -1,525 Descending Cleveland Center
Tue 02:01:04 PM 42.4553 -83.2933 64° Northeast 240 276 4,000 -639 Descending Cleveland Center
Tue 02:02:05 PM 42.4042 -83.2489 147° Southeast 203 234 4,000 -393 Level Cleveland Center
Tue 02:03:06 PM 42.3536 -83.2722 199° South 187 215 3,200 -787 Descending Cleveland Center

Login

Don't have an account? Register now (free) for customized features, flight alerts, and more!